sensor_id;sensor_type;location;lat;lon;timestamp;temperature;humidity
25352;DHT22;13304;48.464;8.712;2022-12-29T00:02:14;9.70;84.30
25352;DHT22;13304;48.464;8.712;2022-12-29T00:04:40;9.70;84.10
25352;DHT22;13304;48.464;8.712;2022-12-29T00:07:06;9.70;83.70
25352;DHT22;13304;48.464;8.712;2022-12-29T00:09:33;9.70;84.00
25352;DHT22;13304;48.464;8.712;2022-12-29T00:11:59;9.80;84.00
25352;DHT22;13304;48.464;8.712;2022-12-29T00:14:25;9.70;83.80
25352;DHT22;13304;48.464;8.712;2022-12-29T00:17:10;9.70;83.70
25352;DHT22;13304;48.464;8.712;2022-12-29T00:19:36;9.80;83.70
25352;DHT22;13304;48.464;8.712;2022-12-29T00:22:20;9.80;83.20
25352;DHT22;13304;48.464;8.712;2022-12-29T00:25:07;9.80;83.40
25352;DHT22;13304;48.464;8.712;2022-12-29T00:27:52;9.80;83.40
25352;DHT22;13304;48.464;8.712;2022-12-29T00:30:36;9.80;82.70
25352;DHT22;13304;48.464;8.712;2022-12-29T00:33:22;9.80;83.30
25352;DHT22;13304;48.464;8.712;2022-12-29T00:36:20;9.80;83.00
25352;DHT22;13304;48.464;8.712;2022-12-29T00:38:49;9.80;83.70
25352;DHT22;13304;48.464;8.712;2022-12-29T00:41:35;9.90;82.90
25352;DHT22;13304;48.464;8.712;2022-12-29T00:44:19;9.90;83.00
25352;DHT22;13304;48.464;8.712;2022-12-29T00:46:45;10.00;83.70
25352;DHT22;13304;48.464;8.712;2022-12-29T00:49:12;10.00;83.60
25352;DHT22;13304;48.464;8.712;2022-12-29T00:54:29;10.00;81.60
25352;DHT22;13304;48.464;8.712;2022-12-29T00:56:55;10.10;82.10
25352;DHT22;13304;48.464;8.712;2022-12-29T00:59:21;10.10;82.40
25352;DHT22;13304;48.464;8.712;2022-12-29T01:01:47;10.10;82.00
25352;DHT22;13304;48.464;8.712;2022-12-29T01:04:13;10.10;82.70
25352;DHT22;13304;48.464;8.712;2022-12-29T01:06:40;10.10;81.80
25352;DHT22;13304;48.464;8.712;2022-12-29T01:09:07;10.10;82.30
25352;DHT22;13304;48.464;8.712;2022-12-29T01:11:51;10.20;82.30
25352;DHT22;13304;48.464;8.712;2022-12-29T01:14:18;10.20;81.90
25352;DHT22;13304;48.464;8.712;2022-12-29T01:16:44;10.20;81.30
25352;DHT22;13304;48.464;8.712;2022-12-29T01:19:10;10.20;81.90
25352;DHT22;13304;48.464;8.712;2022-12-29T01:21:36;10.20;82.30
25352;DHT22;13304;48.464;8.712;2022-12-29T01:24:01;10.20;82.20
25352;DHT22;13304;48.464;8.712;2022-12-29T01:26:27;10.20;82.30
25352;DHT22;13304;48.464;8.712;2022-12-29T01:28:52;10.20;81.80
25352;DHT22;13304;48.464;8.712;2022-12-29T01:31:18;10.30;81.90
25352;DHT22;13304;48.464;8.712;2022-12-29T01:33:44;10.30;82.00
25352;DHT22;13304;48.464;8.712;2022-12-29T01:36:12;10.30;82.50
25352;DHT22;13304;48.464;8.712;2022-12-29T01:38:39;10.30;83.30
25352;DHT22;13304;48.464;8.712;2022-12-29T01:41:06;10.40;81.50
25352;DHT22;13304;48.464;8.712;2022-12-29T01:43:45;10.40;82.30
25352;DHT22;13304;48.464;8.712;2022-12-29T01:48:43;10.30;80.70
25352;DHT22;13304;48.464;8.712;2022-12-29T01:51:10;10.40;82.70
25352;DHT22;13304;48.464;8.712;2022-12-29T01:53:36;10.40;81.90
25352;DHT22;13304;48.464;8.712;2022-12-29T01:56:06;10.40;81.80
25352;DHT22;13304;48.464;8.712;2022-12-29T01:58:35;10.50;82.20
25352;DHT22;13304;48.464;8.712;2022-12-29T02:01:04;10.40;81.90
25352;DHT22;13304;48.464;8.712;2022-12-29T02:03:30;10.50;81.60
25352;DHT22;13304;48.464;8.712;2022-12-29T02:08:33;10.60;79.80
25352;DHT22;13304;48.464;8.712;2022-12-29T02:11:00;10.80;81.20
25352;DHT22;13304;48.464;8.712;2022-12-29T02:13:26;10.80;78.70
25352;DHT22;13304;48.464;8.712;2022-12-29T02:16:32;11.00;78.10
25352;DHT22;13304;48.464;8.712;2022-12-29T02:30:15;11.50;77.40
25352;DHT22;13304;48.464;8.712;2022-12-29T02:35:56;11.60;75.40
25352;DHT22;13304;48.464;8.712;2022-12-29T02:46:57;11.80;74.20
25352;DHT22;13304;48.464;8.712;2022-12-29T02:49:36;11.90;73.60
25352;DHT22;13304;48.464;8.712;2022-12-29T02:52:14;11.90;73.20
25352;DHT22;13304;48.464;8.712;2022-12-29T02:54:41;11.90;73.40
25352;DHT22;13304;48.464;8.712;2022-12-29T02:57:26;12.00;74.20
25352;DHT22;13304;48.464;8.712;2022-12-29T03:05:34;12.20;74.30
25352;DHT22;13304;48.464;8.712;2022-12-29T03:10:49;12.20;73.60
25352;DHT22;13304;48.464;8.712;2022-12-29T03:13:36;12.10;72.90
25352;DHT22;13304;48.464;8.712;2022-12-29T03:16:35;12.20;74.10
25352;DHT22;13304;48.464;8.712;2022-12-29T03:21:54;12.20;74.10
25352;DHT22;13304;48.464;8.712;2022-12-29T03:24:43;12.20;74.20
25352;DHT22;13304;48.464;8.712;2022-12-29T03:27:12;12.30;73.90
25352;DHT22;13304;48.464;8.712;2022-12-29T03:29:51;12.30;73.90
25352;DHT22;13304;48.464;8.712;2022-12-29T03:32:28;12.30;74.20
25352;DHT22;13304;48.464;8.712;2022-12-29T03:34:54;12.40;74.50
25352;DHT22;13304;48.464;8.712;2022-12-29T03:37:35;12.40;74.30
25352;DHT22;13304;48.464;8.712;2022-12-29T03:40:02;12.30;73.30
25352;DHT22;13304;48.464;8.712;2022-12-29T03:42:32;12.30;73.70
25352;DHT22;13304;48.464;8.712;2022-12-29T03:44:58;12.30;73.80
25352;DHT22;13304;48.464;8.712;2022-12-29T03:47:24;12.40;74.10
25352;DHT22;13304;48.464;8.712;2022-12-29T03:49:51;12.40;74.20
25352;DHT22;13304;48.464;8.712;2022-12-29T03:52:17;12.30;73.80
25352;DHT22;13304;48.464;8.712;2022-12-29T03:54:43;12.30;73.00
25352;DHT22;13304;48.464;8.712;2022-12-29T03:57:10;12.30;73.90
25352;DHT22;13304;48.464;8.712;2022-12-29T03:59:35;12.30;73.90
25352;DHT22;13304;48.464;8.712;2022-12-29T04:02:01;12.30;74.40
25352;DHT22;13304;48.464;8.712;2022-12-29T04:04:26;12.30;74.40
25352;DHT22;13304;48.464;8.712;2022-12-29T04:06:52;12.30;74.30
25352;DHT22;13304;48.464;8.712;2022-12-29T04:09:18;12.30;74.50
25352;DHT22;13304;48.464;8.712;2022-12-29T04:11:43;12.30;74.70
25352;DHT22;13304;48.464;8.712;2022-12-29T04:14:09;12.30;74.30
25352;DHT22;13304;48.464;8.712;2022-12-29T04:16:35;12.20;74.00
25352;DHT22;13304;48.464;8.712;2022-12-29T04:19:05;12.20;74.10
25352;DHT22;13304;48.464;8.712;2022-12-29T04:21:31;12.20;74.50
25352;DHT22;13304;48.464;8.712;2022-12-29T04:23:56;12.20;74.20
25352;DHT22;13304;48.464;8.712;2022-12-29T04:26:22;12.20;74.90
25352;DHT22;13304;48.464;8.712;2022-12-29T04:28:48;12.20;74.50
25352;DHT22;13304;48.464;8.712;2022-12-29T04:31:13;12.30;74.40
25352;DHT22;13304;48.464;8.712;2022-12-29T04:33:39;12.30;74.40
25352;DHT22;13304;48.464;8.712;2022-12-29T04:36:05;12.30;74.10
25352;DHT22;13304;48.464;8.712;2022-12-29T04:38:31;12.30;73.60
25352;DHT22;13304;48.464;8.712;2022-12-29T04:40:59;12.30;73.70
25352;DHT22;13304;48.464;8.712;2022-12-29T04:43:25;12.30;73.50
25352;DHT22;13304;48.464;8.712;2022-12-29T04:45:51;12.30;73.50
25352;DHT22;13304;48.464;8.712;2022-12-29T04:48:17;12.30;73.50
25352;DHT22;13304;48.464;8.712;2022-12-29T04:50:43;12.30;73.60
25352;DHT22;13304;48.464;8.712;2022-12-29T04:53:10;12.30;73.70
25352;DHT22;13304;48.464;8.712;2022-12-29T04:55:35;12.30;74.10
25352;DHT22;13304;48.464;8.712;2022-12-29T04:58:01;12.30;74.30
25352;DHT22;13304;48.464;8.712;2022-12-29T05:00:27;12.40;74.00
25352;DHT22;13304;48.464;8.712;2022-12-29T05:02:52;12.40;74.20
25352;DHT22;13304;48.464;8.712;2022-12-29T05:05:18;12.40;74.00
25352;DHT22;13304;48.464;8.712;2022-12-29T05:07:44;12.50;73.90
25352;DHT22;13304;48.464;8.712;2022-12-29T05:10:11;12.50;73.90
25352;DHT22;13304;48.464;8.712;2022-12-29T05:12:37;12.50;73.60
25352;DHT22;13304;48.464;8.712;2022-12-29T05:15:04;12.40;73.50
25352;DHT22;13304;48.464;8.712;2022-12-29T05:17:31;12.40;73.30
25352;DHT22;13304;48.464;8.712;2022-12-29T05:19:57;12.50;73.60
25352;DHT22;13304;48.464;8.712;2022-12-29T05:22:23;12.50;73.60
25352;DHT22;13304;48.464;8.712;2022-12-29T05:24:49;12.40;73.00
25352;DHT22;13304;48.464;8.712;2022-12-29T05:27:14;12.50;73.40
25352;DHT22;13304;48.464;8.712;2022-12-29T05:29:40;12.50;73.40
25352;DHT22;13304;48.464;8.712;2022-12-29T05:32:06;12.50;73.40
25352;DHT22;13304;48.464;8.712;2022-12-29T05:34:31;12.50;73.10
25352;DHT22;13304;48.464;8.712;2022-12-29T05:36:57;12.50;73.30
25352;DHT22;13304;48.464;8.712;2022-12-29T05:39:23;12.50;73.00
25352;DHT22;13304;48.464;8.712;2022-12-29T05:41:48;12.50;73.00
25352;DHT22;13304;48.464;8.712;2022-12-29T05:44:14;12.60;73.60
25352;DHT22;13304;48.464;8.712;2022-12-29T05:46:40;12.60;73.30
25352;DHT22;13304;48.464;8.712;2022-12-29T05:49:06;12.50;72.50
25352;DHT22;13304;48.464;8.712;2022-12-29T05:51:32;12.70;73.10
25352;DHT22;13304;48.464;8.712;2022-12-29T05:53:57;12.70;72.40
25352;DHT22;13304;48.464;8.712;2022-12-29T05:56:23;12.70;72.90
25352;DHT22;13304;48.464;8.712;2022-12-29T05:58:49;12.70;72.70
25352;DHT22;13304;48.464;8.712;2022-12-29T06:01:14;12.80;72.20
25352;DHT22;13304;48.464;8.712;2022-12-29T06:03:40;12.70;72.00
25352;DHT22;13304;48.464;8.712;2022-12-29T06:06:06;12.80;72.70
25352;DHT22;13304;48.464;8.712;2022-12-29T06:08:32;12.80;72.60
25352;DHT22;13304;48.464;8.712;2022-12-29T06:10:58;12.70;71.90
25352;DHT22;13304;48.464;8.712;2022-12-29T06:13:23;12.80;72.20
25352;DHT22;13304;48.464;8.712;2022-12-29T06:15:49;12.70;72.50
25352;DHT22;13304;48.464;8.712;2022-12-29T06:18:15;12.70;72.50
25352;DHT22;13304;48.464;8.712;2022-12-29T06:20:41;12.80;73.00
25352;DHT22;13304;48.464;8.712;2022-12-29T06:23:07;12.80;73.30
25352;DHT22;13304;48.464;8.712;2022-12-29T06:25:33;12.80;73.30
25352;DHT22;13304;48.464;8.712;2022-12-29T06:28:02;12.70;72.70
25352;DHT22;13304;48.464;8.712;2022-12-29T06:30:28;12.70;73.40
25352;DHT22;13304;48.464;8.712;2022-12-29T06:32:53;12.80;73.70
25352;DHT22;13304;48.464;8.712;2022-12-29T06:35:20;12.80;74.10
25352;DHT22;13304;48.464;8.712;2022-12-29T06:37:46;12.80;74.30
25352;DHT22;13304;48.464;8.712;2022-12-29T06:40:12;12.80;73.90
25352;DHT22;13304;48.464;8.712;2022-12-29T06:42:38;12.70;74.20
25352;DHT22;13304;48.464;8.712;2022-12-29T06:45:04;12.70;74.00
25352;DHT22;13304;48.464;8.712;2022-12-29T06:47:30;12.70;73.20
25352;DHT22;13304;48.464;8.712;2022-12-29T06:49:55;12.70;73.30
25352;DHT22;13304;48.464;8.712;2022-12-29T06:52:21;12.70;73.60
25352;DHT22;13304;48.464;8.712;2022-12-29T06:54:49;12.60;72.90
25352;DHT22;13304;48.464;8.712;2022-12-29T06:57:14;12.60;73.20
25352;DHT22;13304;48.464;8.712;2022-12-29T06:59:40;12.60;73.70
25352;DHT22;13304;48.464;8.712;2022-12-29T07:02:06;12.60;73.50
25352;DHT22;13304;48.464;8.712;2022-12-29T07:04:32;12.60;74.00
25352;DHT22;13304;48.464;8.712;2022-12-29T07:06:57;12.60;73.50
25352;DHT22;13304;48.464;8.712;2022-12-29T07:09:23;12.50;73.30
25352;DHT22;13304;48.464;8.712;2022-12-29T07:11:48;12.50;73.20
25352;DHT22;13304;48.464;8.712;2022-12-29T07:14:14;12.50;73.80
25352;DHT22;13304;48.464;8.712;2022-12-29T07:16:40;12.40;73.70
25352;DHT22;13304;48.464;8.712;2022-12-29T07:19:05;12.40;73.80
25352;DHT22;13304;48.464;8.712;2022-12-29T07:21:31;12.30;73.90
25352;DHT22;13304;48.464;8.712;2022-12-29T07:23:57;12.30;73.90
25352;DHT22;13304;48.464;8.712;2022-12-29T07:26:22;12.20;73.30
25352;DHT22;13304;48.464;8.712;2022-12-29T07:28:48;12.20;74.30
25352;DHT22;13304;48.464;8.712;2022-12-29T07:31:15;12.10;74.60
25352;DHT22;13304;48.464;8.712;2022-12-29T07:33:42;12.10;74.50
25352;DHT22;13304;48.464;8.712;2022-12-29T07:36:09;12.10;74.90
25352;DHT22;13304;48.464;8.712;2022-12-29T07:38:34;12.10;75.20
25352;DHT22;13304;48.464;8.712;2022-12-29T07:41:00;12.00;75.30
25352;DHT22;13304;48.464;8.712;2022-12-29T07:43:26;12.00;75.10
25352;DHT22;13304;48.464;8.712;2022-12-29T07:45:51;12.00;75.90
25352;DHT22;13304;48.464;8.712;2022-12-29T07:48:17;12.00;75.80
25352;DHT22;13304;48.464;8.712;2022-12-29T07:50:43;12.00;76.00
25352;DHT22;13304;48.464;8.712;2022-12-29T07:53:08;12.00;75.60
25352;DHT22;13304;48.464;8.712;2022-12-29T07:55:34;12.00;76.10
25352;DHT22;13304;48.464;8.712;2022-12-29T07:58:00;12.00;75.70
25352;DHT22;13304;48.464;8.712;2022-12-29T08:00:26;12.00;76.40
25352;DHT22;13304;48.464;8.712;2022-12-29T08:02:51;12.00;76.20
25352;DHT22;13304;48.464;8.712;2022-12-29T08:05:17;12.00;76.40
25352;DHT22;13304;48.464;8.712;2022-12-29T08:07:44;12.00;76.50
25352;DHT22;13304;48.464;8.712;2022-12-29T08:10:10;12.10;77.10
25352;DHT22;13304;48.464;8.712;2022-12-29T08:12:37;12.00;76.00
25352;DHT22;13304;48.464;8.712;2022-12-29T08:15:04;12.00;76.30
25352;DHT22;13304;48.464;8.712;2022-12-29T08:17:30;12.10;76.30
25352;DHT22;13304;48.464;8.712;2022-12-29T08:19:55;12.10;75.50
25352;DHT22;13304;48.464;8.712;2022-12-29T08:22:21;12.10;75.20
25352;DHT22;13304;48.464;8.712;2022-12-29T08:24:47;12.10;72.90
25352;DHT22;13304;48.464;8.712;2022-12-29T08:27:13;12.30;73.40
25352;DHT22;13304;48.464;8.712;2022-12-29T08:29:39;12.40;73.60
25352;DHT22;13304;48.464;8.712;2022-12-29T08:32:04;12.50;72.50
25352;DHT22;13304;48.464;8.712;2022-12-29T08:34:31;12.50;71.50
25352;DHT22;13304;48.464;8.712;2022-12-29T08:36:57;12.60;71.40
25352;DHT22;13304;48.464;8.712;2022-12-29T08:39:22;12.80;70.60
25352;DHT22;13304;48.464;8.712;2022-12-29T08:41:48;12.90;70.70
25352;DHT22;13304;48.464;8.712;2022-12-29T08:44:14;13.00;70.70
25352;DHT22;13304;48.464;8.712;2022-12-29T08:46:39;13.10;70.10
25352;DHT22;13304;48.464;8.712;2022-12-29T08:49:05;13.20;70.30
25352;DHT22;13304;48.464;8.712;2022-12-29T08:51:31;13.20;69.70
25352;DHT22;13304;48.464;8.712;2022-12-29T08:53:56;13.20;69.10
25352;DHT22;13304;48.464;8.712;2022-12-29T08:56:22;13.30;69.40
25352;DHT22;13304;48.464;8.712;2022-12-29T08:58:52;13.40;69.50
25352;DHT22;13304;48.464;8.712;2022-12-29T09:01:18;13.40;69.10
25352;DHT22;13304;48.464;8.712;2022-12-29T09:03:44;13.40;68.90
25352;DHT22;13304;48.464;8.712;2022-12-29T09:06:09;13.40;68.70
25352;DHT22;13304;48.464;8.712;2022-12-29T09:08:38;13.40;68.90
25352;DHT22;13304;48.464;8.712;2022-12-29T09:11:18;13.40;69.00
25352;DHT22;13304;48.464;8.712;2022-12-29T09:13:44;13.40;68.80
25352;DHT22;13304;48.464;8.712;2022-12-29T09:16:11;13.30;68.50
25352;DHT22;13304;48.464;8.712;2022-12-29T09:18:37;13.50;68.90
25352;DHT22;13304;48.464;8.712;2022-12-29T09:21:04;13.40;68.20
25352;DHT22;13304;48.464;8.712;2022-12-29T09:23:30;13.40;68.10
25352;DHT22;13304;48.464;8.712;2022-12-29T09:25:56;13.50;69.80
25352;DHT22;13304;48.464;8.712;2022-12-29T09:28:23;13.60;69.00
25352;DHT22;13304;48.464;8.712;2022-12-29T09:30:49;13.60;68.90
25352;DHT22;13304;48.464;8.712;2022-12-29T09:33:15;13.60;68.70
25352;DHT22;13304;48.464;8.712;2022-12-29T09:35:45;13.60;68.50
25352;DHT22;13304;48.464;8.712;2022-12-29T09:38:15;13.60;68.60
25352;DHT22;13304;48.464;8.712;2022-12-29T09:40:44;13.70;68.70
25352;DHT22;13304;48.464;8.712;2022-12-29T09:45:45;13.70;68.70
25352;DHT22;13304;48.464;8.712;2022-12-29T09:48:18;13.60;68.80
25352;DHT22;13304;48.464;8.712;2022-12-29T09:50:49;13.70;69.00
25352;DHT22;13304;48.464;8.712;2022-12-29T09:53:24;13.70;68.80
25352;DHT22;13304;48.464;8.712;2022-12-29T09:55:55;13.70;69.00
25352;DHT22;13304;48.464;8.712;2022-12-29T09:58:32;13.70;68.70
25352;DHT22;13304;48.464;8.712;2022-12-29T10:03:52;13.80;69.40
25352;DHT22;13304;48.464;8.712;2022-12-29T10:06:51;13.80;69.30
25352;DHT22;13304;48.464;8.712;2022-12-29T10:15:14;13.80;68.70
25352;DHT22;13304;48.464;8.712;2022-12-29T10:25:31;13.80;69.50
25352;DHT22;13304;48.464;8.712;2022-12-29T10:28:28;13.80;70.00
25352;DHT22;13304;48.464;8.712;2022-12-29T10:30:50;13.80;70.10
25352;DHT22;13304;48.464;8.712;2022-12-29T10:33:30;13.80;69.50
25352;DHT22;13304;48.464;8.712;2022-12-29T10:35:58;13.80;69.80
25352;DHT22;13304;48.464;8.712;2022-12-29T10:38:35;13.90;69.70
25352;DHT22;13304;48.464;8.712;2022-12-29T10:41:18;13.80;69.10
25352;DHT22;13304;48.464;8.712;2022-12-29T10:43:48;13.80;69.70
25352;DHT22;13304;48.464;8.712;2022-12-29T10:46:19;13.80;69.20
25352;DHT22;13304;48.464;8.712;2022-12-29T10:48:45;13.90;69.40
25352;DHT22;13304;48.464;8.712;2022-12-29T10:51:24;13.90;70.00
25352;DHT22;13304;48.464;8.712;2022-12-29T10:53:55;13.90;70.30
25352;DHT22;13304;48.464;8.712;2022-12-29T10:56:43;13.90;70.60
25352;DHT22;13304;48.464;8.712;2022-12-29T10:59:18;13.90;71.70
25352;DHT22;13304;48.464;8.712;2022-12-29T11:04:55;13.90;74.00
25352;DHT22;13304;48.464;8.712;2022-12-29T11:07:24;13.90;74.40
25352;DHT22;13304;48.464;8.712;2022-12-29T11:09:51;13.80;74.70
25352;DHT22;13304;48.464;8.712;2022-12-29T11:12:29;13.70;75.60
25352;DHT22;13304;48.464;8.712;2022-12-29T11:15:12;13.70;76.20
25352;DHT22;13304;48.464;8.712;2022-12-29T11:17:49;13.60;77.30
25352;DHT22;13304;48.464;8.712;2022-12-29T11:20:36;13.60;77.70
25352;DHT22;13304;48.464;8.712;2022-12-29T11:23:05;13.50;78.70
25352;DHT22;13304;48.464;8.712;2022-12-29T11:25:31;13.50;79.00
25352;DHT22;13304;48.464;8.712;2022-12-29T11:28:03;13.50;79.50
25352;DHT22;13304;48.464;8.712;2022-12-29T11:30:39;13.40;78.90
25352;DHT22;13304;48.464;8.712;2022-12-29T11:33:04;13.40;79.20
25352;DHT22;13304;48.464;8.712;2022-12-29T11:37:58;13.40;80.40
25352;DHT22;13304;48.464;8.712;2022-12-29T11:40:26;13.30;80.10
25352;DHT22;13304;48.464;8.712;2022-12-29T11:42:59;13.30;80.20
25352;DHT22;13304;48.464;8.712;2022-12-29T11:45:30;13.30;80.10
25352;DHT22;13304;48.464;8.712;2022-12-29T11:48:13;13.30;79.90
25352;DHT22;13304;48.464;8.712;2022-12-29T11:50:42;13.30;79.60
25352;DHT22;13304;48.464;8.712;2022-12-29T11:53:33;13.30;80.10
25352;DHT22;13304;48.464;8.712;2022-12-29T11:56:06;13.30;79.90
25352;DHT22;13304;48.464;8.712;2022-12-29T11:58:36;13.30;80.50
25352;DHT22;13304;48.464;8.712;2022-12-29T12:01:10;13.30;80.70
25352;DHT22;13304;48.464;8.712;2022-12-29T12:03:46;13.30;80.90
25352;DHT22;13304;48.464;8.712;2022-12-29T12:06:16;13.30;81.10
25352;DHT22;13304;48.464;8.712;2022-12-29T12:08:54;13.30;81.60
25352;DHT22;13304;48.464;8.712;2022-12-29T12:16:19;13.20;82.70
25352;DHT22;13304;48.464;8.712;2022-12-29T12:18:57;13.20;82.90
25352;DHT22;13304;48.464;8.712;2022-12-29T12:29:22;13.00;84.20
25352;DHT22;13304;48.464;8.712;2022-12-29T12:31:55;12.90;84.40
25352;DHT22;13304;48.464;8.712;2022-12-29T12:34:39;12.90;84.90
25352;DHT22;13304;48.464;8.712;2022-12-29T12:40:02;12.80;86.60
25352;DHT22;13304;48.464;8.712;2022-12-29T12:51:34;12.90;86.70
25352;DHT22;13304;48.464;8.712;2022-12-29T13:02:49;12.90;86.70
25352;DHT22;13304;48.464;8.712;2022-12-29T13:05:50;12.90;86.60
25352;DHT22;13304;48.464;8.712;2022-12-29T13:20:11;12.90;85.80
25352;DHT22;13304;48.464;8.712;2022-12-29T13:33:20;13.00;84.60
25352;DHT22;13304;48.464;8.712;2022-12-29T13:36:03;13.10;84.40
25352;DHT22;13304;48.464;8.712;2022-12-29T13:38:42;13.10;83.80
25352;DHT22;13304;48.464;8.712;2022-12-29T13:41:35;13.10;84.00
25352;DHT22;13304;48.464;8.712;2022-12-29T13:44:04;13.10;83.90
25352;DHT22;13304;48.464;8.712;2022-12-29T13:46:39;13.20;83.30
25352;DHT22;13304;48.464;8.712;2022-12-29T13:49:12;13.20;83.20
25352;DHT22;13304;48.464;8.712;2022-12-29T13:51:51;13.20;83.00
25352;DHT22;13304;48.464;8.712;2022-12-29T14:00:22;13.10;81.80
25352;DHT22;13304;48.464;8.712;2022-12-29T14:07:45;13.10;81.30
25352;DHT22;13304;48.464;8.712;2022-12-29T14:10:37;13.10;81.50
25352;DHT22;13304;48.464;8.712;2022-12-29T14:13:21;13.20;81.60
25352;DHT22;13304;48.464;8.712;2022-12-29T14:15:55;13.10;80.50
25352;DHT22;13304;48.464;8.712;2022-12-29T14:18:32;13.20;80.90
25352;DHT22;13304;48.464;8.712;2022-12-29T14:28:42;13.20;79.80
25352;DHT22;13304;48.464;8.712;2022-12-29T14:33:41;13.20;80.00
25352;DHT22;13304;48.464;8.712;2022-12-29T14:36:26;13.30;80.40
25352;DHT22;13304;48.464;8.712;2022-12-29T14:38:58;13.10;79.50
25352;DHT22;13304;48.464;8.712;2022-12-29T14:41:29;13.20;79.90
25352;DHT22;13304;48.464;8.712;2022-12-29T14:44:19;13.20;79.90
25352;DHT22;13304;48.464;8.712;2022-12-29T14:49:25;13.10;79.50
25352;DHT22;13304;48.464;8.712;2022-12-29T14:51:54;13.20;80.10
25352;DHT22;13304;48.464;8.712;2022-12-29T14:57:14;13.10;79.80
25352;DHT22;13304;48.464;8.712;2022-12-29T14:59:42;13.10;79.60
25352;DHT22;13304;48.464;8.712;2022-12-29T15:02:20;13.10;79.80
25352;DHT22;13304;48.464;8.712;2022-12-29T15:04:47;13.10;79.50
25352;DHT22;13304;48.464;8.712;2022-12-29T15:07:13;13.10;79.60
25352;DHT22;13304;48.464;8.712;2022-12-29T15:09:47;13.20;79.70
25352;DHT22;13304;48.464;8.712;2022-12-29T15:14:53;13.10;79.20
25352;DHT22;13304;48.464;8.712;2022-12-29T15:17:32;13.10;79.50
25352;DHT22;13304;48.464;8.712;2022-12-29T15:20:00;13.10;78.90
25352;DHT22;13304;48.464;8.712;2022-12-29T15:22:27;13.10;79.40
25352;DHT22;13304;48.464;8.712;2022-12-29T15:24:54;13.10;79.00
25352;DHT22;13304;48.464;8.712;2022-12-29T15:27:25;13.10;79.00
25352;DHT22;13304;48.464;8.712;2022-12-29T15:30:00;13.10;79.00
25352;DHT22;13304;48.464;8.712;2022-12-29T15:32:39;13.10;78.90
25352;DHT22;13304;48.464;8.712;2022-12-29T15:35:32;13.10;79.20
25352;DHT22;13304;48.464;8.712;2022-12-29T15:37:58;13.10;78.50
25352;DHT22;13304;48.464;8.712;2022-12-29T15:40:30;13.10;79.00
25352;DHT22;13304;48.464;8.712;2022-12-29T15:43:57;13.10;78.90
25352;DHT22;13304;48.464;8.712;2022-12-29T15:45:51;13.10;79.30
25352;DHT22;13304;48.464;8.712;2022-12-29T15:48:22;13.10;79.00
25352;DHT22;13304;48.464;8.712;2022-12-29T15:50:48;13.10;79.40
25352;DHT22;13304;48.464;8.712;2022-12-29T15:53:29;13.00;79.50
25352;DHT22;13304;48.464;8.712;2022-12-29T15:56:07;13.00;78.90
25352;DHT22;13304;48.464;8.712;2022-12-29T15:58:46;13.10;79.40
25352;DHT22;13304;48.464;8.712;2022-12-29T16:01:34;13.10;79.10
25352;DHT22;13304;48.464;8.712;2022-12-29T16:04:06;13.00;79.80
25352;DHT22;13304;48.464;8.712;2022-12-29T16:06:35;13.00;79.40
25352;DHT22;13304;48.464;8.712;2022-12-29T16:09:14;13.10;79.60
25352;DHT22;13304;48.464;8.712;2022-12-29T16:11:43;13.00;79.20
25352;DHT22;13304;48.464;8.712;2022-12-29T16:14:19;13.00;78.80
25352;DHT22;13304;48.464;8.712;2022-12-29T16:16:47;13.00;79.80
25352;DHT22;13304;48.464;8.712;2022-12-29T16:19:21;13.00;79.20
25352;DHT22;13304;48.464;8.712;2022-12-29T16:21:50;13.00;79.00
25352;DHT22;13304;48.464;8.712;2022-12-29T16:24:19;13.00;79.20
25352;DHT22;13304;48.464;8.712;2022-12-29T16:26:51;13.00;79.20
25352;DHT22;13304;48.464;8.712;2022-12-29T16:29:20;13.00;78.90
25352;DHT22;13304;48.464;8.712;2022-12-29T16:31:55;13.00;78.90
25352;DHT22;13304;48.464;8.712;2022-12-29T16:34:42;13.00;78.90
25352;DHT22;13304;48.464;8.712;2022-12-29T16:37:28;12.90;78.50
25352;DHT22;13304;48.464;8.712;2022-12-29T16:39:54;12.90;78.70
25352;DHT22;13304;48.464;8.712;2022-12-29T16:50:41;12.90;79.30
25352;DHT22;13304;48.464;8.712;2022-12-29T16:55:50;12.90;78.90
25352;DHT22;13304;48.464;8.712;2022-12-29T16:58:25;12.90;79.40
25352;DHT22;13304;48.464;8.712;2022-12-29T17:00:56;12.80;79.00
25352;DHT22;13304;48.464;8.712;2022-12-29T17:03:39;12.90;79.40
25352;DHT22;13304;48.464;8.712;2022-12-29T17:06:05;12.80;79.20
25352;DHT22;13304;48.464;8.712;2022-12-29T17:08:42;12.90;79.40
25352;DHT22;13304;48.464;8.712;2022-12-29T17:14:10;12.80;78.90
25352;DHT22;13304;48.464;8.712;2022-12-29T17:16:41;12.80;79.50
25352;DHT22;13304;48.464;8.712;2022-12-29T17:19:08;12.70;79.40
25352;DHT22;13304;48.464;8.712;2022-12-29T17:21:38;12.70;79.30
25352;DHT22;13304;48.464;8.712;2022-12-29T17:24:16;12.60;79.50
25352;DHT22;13304;48.464;8.712;2022-12-29T17:26:45;12.50;79.50
25352;DHT22;13304;48.464;8.712;2022-12-29T17:29:21;12.60;80.10
25352;DHT22;13304;48.464;8.712;2022-12-29T17:31:49;12.50;80.10
25352;DHT22;13304;48.464;8.712;2022-12-29T17:34:15;12.50;80.30
25352;DHT22;13304;48.464;8.712;2022-12-29T17:36:41;12.50;80.50
25352;DHT22;13304;48.464;8.712;2022-12-29T17:39:08;12.50;80.80
25352;DHT22;13304;48.464;8.712;2022-12-29T17:41:35;12.50;80.70
25352;DHT22;13304;48.464;8.712;2022-12-29T17:44:02;12.50;80.90
25352;DHT22;13304;48.464;8.712;2022-12-29T17:46:27;12.50;80.90
25352;DHT22;13304;48.464;8.712;2022-12-29T17:48:53;12.60;81.00
25352;DHT22;13304;48.464;8.712;2022-12-29T17:51:20;12.60;81.00
25352;DHT22;13304;48.464;8.712;2022-12-29T17:53:46;12.60;80.90
25352;DHT22;13304;48.464;8.712;2022-12-29T17:56:12;12.50;80.70
25352;DHT22;13304;48.464;8.712;2022-12-29T17:58:37;12.50;80.80
25352;DHT22;13304;48.464;8.712;2022-12-29T18:01:03;12.50;80.80
25352;DHT22;13304;48.464;8.712;2022-12-29T18:03:38;12.50;81.80
25352;DHT22;13304;48.464;8.712;2022-12-29T18:06:05;12.50;81.00
25352;DHT22;13304;48.464;8.712;2022-12-29T18:08:34;12.50;81.10
25352;DHT22;13304;48.464;8.712;2022-12-29T18:11:00;12.60;81.40
25352;DHT22;13304;48.464;8.712;2022-12-29T18:13:29;12.60;81.00
25352;DHT22;13304;48.464;8.712;2022-12-29T18:15:56;12.60;81.10
25352;DHT22;13304;48.464;8.712;2022-12-29T18:18:25;12.60;81.20
25352;DHT22;13304;48.464;8.712;2022-12-29T18:20:52;12.60;81.30
25352;DHT22;13304;48.464;8.712;2022-12-29T18:23:30;12.60;81.10
25352;DHT22;13304;48.464;8.712;2022-12-29T18:26:06;12.60;81.20
25352;DHT22;13304;48.464;8.712;2022-12-29T18:28:36;12.60;81.30
25352;DHT22;13304;48.464;8.712;2022-12-29T18:31:02;12.60;81.30
25352;DHT22;13304;48.464;8.712;2022-12-29T18:33:28;12.60;81.00
25352;DHT22;13304;48.464;8.712;2022-12-29T18:35:59;12.60;81.40
25352;DHT22;13304;48.464;8.712;2022-12-29T18:38:25;12.60;81.10